Time;durP1;ratioP1;P1;durP2;ratioP2;P2;SDS_P1;SDS_P2;PMS_P1;PMS_P2;Temp;Humidity;BMP_temperature;BMP_pressure;BME280_temperature;BME280_humidity;BME280_pressure;Samples;Min_cycle;Max_cycle;Signal;HPM_P1;HPM_P2
2022/01/02 00:01:29;;;;;;;9.57;5.10;;;9.80;99.90;;;;;;5000297;28;20485;-49
2022/01/02 00:03:59;;;;;;;10.98;4.70;;;9.80;99.90;;;;;;5000982;28;20125;-49
2022/01/02 00:06:26;;;;;;;12.85;4.97;;;9.80;99.90;;;;;;5000781;28;20113;-49
2022/01/02 00:09:01;;;;;;;11.05;5.75;;;9.80;99.90;;;;;;5007761;28;20042;-49
2022/01/02 00:11:27;;;;;;;11.20;5.40;;;9.80;99.90;;;;;;5000315;28;20371;-49
2022/01/02 00:13:56;;;;;;;12.73;5.75;;;9.80;99.90;;;;;;5000734;28;20031;-49
2022/01/02 00:16:23;;;;;;;10.57;5.10;;;9.80;99.90;;;;;;5000802;28;20053;-49
2022/01/02 00:19:04;;;;;;;10.38;5.00;;;9.80;99.90;;;;;;4999802;28;20034;-49
2022/01/02 00:21:32;;;;;;;11.68;5.55;;;9.80;99.90;;;;;;5001068;28;20054;-49
2022/01/02 00:24:05;;;;;;;10.85;4.78;;;9.80;99.90;;;;;;5001429;28;20457;-49
2022/01/02 00:26:45;;;;;;;9.73;5.35;;;9.80;99.90;;;;;;5001565;28;20042;-49
2022/01/02 00:29:12;;;;;;;11.95;5.75;;;9.80;99.90;;;;;;5004903;28;20038;-49
2022/01/02 00:31:42;;;;;;;9.23;5.28;;;9.80;99.90;;;;;;4999493;28;20335;-49
2022/01/02 00:34:08;;;;;;;14.30;5.85;;;9.80;99.90;;;;;;5001100;28;20030;-49
2022/01/02 00:36:35;;;;;;;11.57;5.05;;;9.80;99.90;;;;;;5002331;28;20026;-49
2022/01/02 00:39:02;;;;;;;11.32;5.93;;;9.80;99.90;;;;;;4998140;28;20512;-49
2022/01/02 00:42:00;;;;;;;10.93;5.55;;;9.80;99.90;;;;;;5000514;28;20078;-49
2022/01/02 00:44:36;;;;;;;11.05;5.05;;;9.80;99.90;;;;;;5002312;28;20477;-49
2022/01/02 00:47:37;;;;;;;11.98;5.95;;;9.80;99.90;;;;;;5002414;28;20026;-49
2022/01/02 00:50:10;;;;;;;10.73;4.47;;;9.80;99.90;;;;;;5003442;28;20037;-49
2022/01/02 00:52:44;;;;;;;9.30;4.57;;;9.80;99.90;;;;;;5001729;28;20358;-49
2022/01/02 00:55:21;;;;;;;10.82;4.82;;;9.70;99.90;;;;;;5001489;28;20033;-49
2022/01/02 00:58:01;;;;;;;10.98;5.18;;;9.80;99.90;;;;;;5000602;28;20377;-49
2022/01/02 01:00:28;;;;;;;11.43;5.30;;;9.70;99.90;;;;;;4998064;28;20073;-49
2022/01/02 01:02:55;;;;;;;8.82;4.72;;;9.70;99.90;;;;;;5001108;28;20044;-49
2022/01/02 01:05:40;;;;;;;8.68;4.88;;;9.70;99.90;;;;;;4999521;28;20042;-49
2022/01/02 01:08:08;;;;;;;8.77;4.88;;;9.70;99.90;;;;;;5002354;28;20029;-49
2022/01/02 01:10:39;;;;;;;12.40;5.25;;;9.70;99.90;;;;;;5003028;28;20357;-49
2022/01/02 01:13:08;;;;;;;10.80;5.50;;;9.70;99.90;;;;;;5000931;28;20117;-49
2022/01/02 01:15:36;;;;;;;10.27;4.97;;;9.80;99.90;;;;;;5001403;28;20033;-49
2022/01/02 01:18:03;;;;;;;11.77;5.25;;;9.70;99.90;;;;;;4999728;28;20357;-49
2022/01/02 01:20:32;;;;;;;11.50;5.50;;;9.70;99.90;;;;;;5000838;28;20448;-49
2022/01/02 01:22:58;;;;;;;11.97;6.27;;;9.70;99.90;;;;;;4997465;28;20352;-49
2022/01/02 01:25:25;;;;;;;10.05;5.47;;;9.70;99.90;;;;;;5002340;28;20728;-49
2022/01/02 01:27:52;;;;;;;13.00;6.05;;;9.70;99.90;;;;;;5001588;28;20133;-49
2022/01/02 01:30:20;;;;;;;12.02;6.00;;;9.70;99.90;;;;;;4999413;28;20061;-49
2022/01/02 01:32:46;;;;;;;11.13;6.13;;;9.70;99.90;;;;;;5003489;28;20029;-49
2022/01/02 01:35:14;;;;;;;11.13;5.45;;;9.70;99.90;;;;;;5001536;28;20033;-49
2022/01/02 01:37:39;;;;;;;14.48;6.10;;;9.70;99.90;;;;;;5000020;28;20064;-49
2022/01/02 01:40:08;;;;;;;13.20;6.13;;;9.70;99.90;;;;;;5002534;28;20101;-49
2022/01/02 01:42:40;;;;;;;11.13;5.45;;;9.70;99.90;;;;;;5001231;28;20092;-49
2022/01/02 01:45:42;;;;;;;13.18;6.28;;;9.70;99.90;;;;;;4999992;28;20046;-49
2022/01/02 01:48:05;;;;;;;10.25;5.75;;;9.70;99.90;;;;;;5006058;28;20468;-49
2022/01/02 01:50:35;;;;;;;16.63;6.28;;;9.70;99.90;;;;;;5004802;28;20041;-49
2022/01/02 01:53:01;;;;;;;12.25;6.18;;;9.70;99.90;;;;;;5003455;28;20027;-49
2022/01/02 01:55:27;;;;;;;11.60;5.72;;;9.70;99.90;;;;;;5006121;28;20041;-49
2022/01/02 01:57:53;;;;;;;10.00;5.65;;;9.70;99.90;;;;;;5003639;28;20022;-49
2022/01/02 02:00:22;;;;;;;15.05;6.10;;;9.70;99.90;;;;;;5004803;28;20460;-49
2022/01/02 02:02:48;;;;;;;11.50;5.65;;;9.60;99.90;;;;;;5003811;28;20468;-49
2022/01/02 02:05:14;;;;;;;12.75;5.95;;;9.60;99.90;;;;;;5001611;28;20108;-49
2022/01/02 02:07:42;;;;;;;9.60;5.55;;;9.70;99.90;;;;;;5002254;28;20042;-49
2022/01/02 02:12:43;;;;;;;13.95;5.25;;;9.70;99.90;;;;;;5002778;28;20053;-49
2022/01/02 02:15:10;;;;;;;11.18;5.53;;;9.60;99.90;;;;;;5007379;28;20029;-49
2022/01/02 02:17:37;;;;;;;11.27;4.93;;;9.60;99.90;;;;;;5003163;28;20026;-49
2022/01/02 02:20:18;;;;;;;12.10;4.93;;;9.60;99.90;;;;;;5003648;28;20026;-49
2022/01/02 02:22:47;;;;;;;9.27;4.57;;;9.60;99.90;;;;;;5003685;28;20026;-49
2022/01/02 02:25:15;;;;;;;9.40;5.20;;;9.60;99.90;;;;;;5003624;28;20041;-49
2022/01/02 02:27:51;;;;;;;11.45;5.30;;;9.60;99.90;;;;;;5003763;28;20081;-49
2022/01/02 02:30:17;;;;;;;11.23;5.75;;;9.60;99.90;;;;;;5002482;28;20022;-49
2022/01/02 02:32:43;;;;;;;11.68;5.03;;;9.60;99.90;;;;;;5003058;28;20480;-49
2022/01/02 02:35:08;;;;;;;12.85;5.82;;;9.60;99.90;;;;;;5004693;28;20029;-49
2022/01/02 02:37:37;;;;;;;14.98;6.22;;;9.60;99.90;;;;;;5005779;28;20014;-49
2022/01/02 02:40:03;;;;;;;13.45;5.93;;;9.60;99.90;;;;;;5004148;28;20392;-49
2022/01/02 02:42:41;;;;;;;10.68;4.85;;;9.60;99.90;;;;;;5003272;28;20026;-49
2022/01/02 02:50:47;;;;;;;15.57;5.30;;;9.60;99.90;;;;;;5004553;28;20088;-49
2022/01/02 02:53:15;;;;;;;10.85;5.25;;;9.60;99.90;;;;;;5001998;28;20034;-49
2022/01/02 02:55:45;;;;;;;9.52;5.15;;;9.60;99.90;;;;;;5001317;28;20201;-49
2022/01/02 02:58:39;;;;;;;;;;;9.60;99.90;;;;;;5005497;28;20417;-49
2022/01/02 03:00:57;;;;;;;11.77;6.03;;;9.60;99.90;;;;;;5003607;28;19913;-49
2022/01/02 03:03:23;;;;;;;13.25;6.28;;;9.60;99.90;;;;;;5004902;28;20081;-49
2022/01/02 03:05:49;;;;;;;15.02;6.18;;;9.60;99.90;;;;;;5003369;28;20034;-49
2022/01/02 03:08:15;;;;;;;13.25;6.68;;;9.60;99.90;;;;;;5006212;28;20073;-49
2022/01/02 03:10:41;;;;;;;11.60;4.85;;;9.60;99.90;;;;;;5000385;28;20019;-50
2022/01/02 03:13:07;;;;;;;10.80;5.03;;;9.60;99.90;;;;;;5001821;28;20014;-49
2022/01/02 03:15:32;;;;;;;14.50;5.50;;;9.60;99.90;;;;;;5001330;28;20026;-49
2022/01/02 03:17:58;;;;;;;13.40;5.85;;;9.60;99.90;;;;;;5007565;28;20108;-49
2022/01/02 03:20:24;;;;;;;14.13;6.40;;;9.60;99.90;;;;;;5002928;28;20030;-49
2022/01/02 03:22:49;;;;;;;10.32;5.65;;;9.60;99.90;;;;;;5000927;28;20023;-49
2022/01/02 03:25:16;;;;;;;12.77;5.75;;;9.60;99.90;;;;;;5004026;28;20041;-49
2022/01/02 03:27:42;;;;;;;13.13;5.90;;;9.60;99.90;;;;;;4999459;28;20030;-49
2022/01/02 03:30:11;;;;;;;12.90;5.85;;;9.60;99.90;;;;;;5003964;28;20025;-49
2022/01/02 03:32:37;;;;;;;15.85;6.00;;;9.60;99.90;;;;;;4990375;28;20072;-49
2022/01/02 03:35:03;;;;;;;10.95;4.82;;;9.60;99.90;;;;;;5008654;28;20041;-49
2022/01/02 03:37:32;;;;;;;11.25;5.57;;;9.60;99.90;;;;;;5002481;28;20041;-49
2022/01/02 03:39:58;;;;;;;13.57;6.03;;;9.60;99.90;;;;;;5004383;28;20308;-49
2022/01/02 03:42:24;;;;;;;16.27;6.50;;;9.60;99.90;;;;;;5001265;28;20034;-49
2022/01/02 03:44:49;;;;;;;12.57;5.82;;;9.60;99.90;;;;;;5002032;28;20038;-49
2022/01/02 03:47:15;;;;;;;11.98;5.03;;;9.60;99.90;;;;;;5001101;28;20037;-49
2022/01/02 03:49:41;;;;;;;13.10;6.28;;;9.60;99.90;;;;;;5005754;28;20038;-49
2022/01/02 03:52:07;;;;;;;12.35;5.97;;;9.60;99.90;;;;;;5002035;28;20018;-49
2022/01/02 03:54:33;;;;;;;12.40;5.38;;;9.60;99.90;;;;;;5003095;28;20030;-49
2022/01/02 03:56:59;;;;;;;15.77;6.93;;;9.60;99.90;;;;;;4999862;28;20067;-49
2022/01/02 03:59:25;;;;;;;10.52;5.57;;;9.60;99.90;;;;;;5005233;28;20038;-49
2022/01/02 04:01:50;;;;;;;12.07;6.55;;;9.60;99.90;;;;;;4999361;28;20101;-49
2022/01/02 04:04:17;;;;;;;12.32;5.57;;;9.60;99.90;;;;;;5002863;28;20026;-49
2022/01/02 04:06:42;;;;;;;13.85;7.32;;;9.60;99.90;;;;;;5002035;28;20427;-49
2022/01/02 04:09:08;;;;;;;16.33;6.60;;;9.50;99.90;;;;;;5004194;28;20106;-49
2022/01/02 04:11:34;;;;;;;15.65;5.88;;;9.60;99.90;;;;;;4999593;28;20409;-49
2022/01/02 04:13:59;;;;;;;15.85;6.10;;;9.50;99.90;;;;;;5001797;28;20049;-49
2022/01/02 04:16:25;;;;;;;15.57;7.20;;;9.50;99.90;;;;;;5003012;28;20037;-49
2022/01/02 04:18:51;;;;;;;15.88;6.82;;;9.60;99.90;;;;;;5000863;28;20437;-49
2022/01/02 04:21:16;;;;;;;13.80;6.60;;;9.50;99.90;;;;;;5004052;28;20118;-49
2022/01/02 04:23:42;;;;;;;13.75;5.95;;;9.50;99.90;;;;;;5002801;28;20041;-49
2022/01/02 04:26:08;;;;;;;12.90;5.90;;;9.50;99.90;;;;;;5000275;28;20026;-49
2022/01/02 04:28:34;;;;;;;14.52;6.45;;;9.60;99.90;;;;;;5002105;28;20121;-49
2022/01/02 04:30:59;;;;;;;16.27;7.35;;;9.50;99.90;;;;;;5002225;28;20369;-49
2022/01/02 04:33:25;;;;;;;16.27;6.45;;;9.50;99.90;;;;;;4998224;28;20084;-49
2022/01/02 04:35:50;;;;;;;16.13;6.55;;;9.50;99.90;;;;;;4998652;28;20026;-49
2022/01/02 04:38:16;;;;;;;14.95;6.00;;;9.50;99.90;;;;;;5003300;28;20022;-49
2022/01/02 04:40:42;;;;;;;16.05;7.32;;;9.50;99.90;;;;;;5002085;28;20497;-49
2022/01/02 04:43:07;;;;;;;13.68;7.18;;;9.60;99.90;;;;;;5003738;28;20353;-49
2022/01/02 04:45:34;;;;;;;20.63;7.20;;;9.50;99.90;;;;;;4998095;28;20462;-49
2022/01/02 04:47:59;;;;;;;15.48;7.00;;;9.50;99.90;;;;;;5001627;28;20113;-49
2022/01/02 04:50:25;;;;;;;14.73;7.20;;;9.50;99.90;;;;;;5002623;28;20068;-49
2022/01/02 04:52:51;;;;;;;16.05;6.85;;;9.50;99.90;;;;;;5000904;28;20430;-49
2022/01/02 04:55:17;;;;;;;14.80;6.28;;;9.50;99.90;;;;;;5001187;28;20559;-49
2022/01/02 04:57:43;;;;;;;13.52;6.20;;;9.50;99.90;;;;;;4999596;28;20456;-49
2022/01/02 05:00:09;;;;;;;12.38;6.40;;;9.50;99.90;;;;;;5002356;28;20065;-48
2022/01/02 05:02:35;;;;;;;15.63;7.03;;;9.50;99.90;;;;;;4999473;28;20030;-49
2022/01/02 05:05:00;;;;;;;14.63;6.70;;;9.50;99.90;;;;;;4999172;28;20165;-49
2022/01/02 05:07:26;;;;;;;16.58;7.63;;;9.60;99.90;;;;;;5000327;28;20293;-49
2022/01/02 05:09:52;;;;;;;14.65;7.00;;;9.50;99.90;;;;;;5003188;28;20033;-49
2022/01/02 05:12:17;;;;;;;16.58;7.82;;;9.50;99.90;;;;;;4999371;28;20334;-49
2022/01/02 05:14:43;;;;;;;15.10;6.78;;;9.50;99.90;;;;;;5000901;28;20038;-48
2022/01/02 05:17:08;;;;;;;18.20;6.43;;;9.50;99.90;;;;;;5001668;28;20065;-49
2022/01/02 05:19:34;;;;;;;18.42;7.60;;;9.50;99.90;;;;;;4998803;28;20108;-49
2022/01/02 05:22:00;;;;;;;13.63;6.72;;;9.50;99.90;;;;;;5000943;28;20030;-49
2022/01/02 05:24:26;;;;;;;15.90;6.60;;;9.50;99.90;;;;;;5000407;28;20049;-49
2022/01/02 05:26:53;;;;;;;21.85;6.60;;;9.50;99.90;;;;;;4998804;28;20537;-49
2022/01/02 05:29:19;;;;;;;15.77;7.50;;;9.50;99.90;;;;;;5000607;28;20043;-49
2022/01/02 05:31:45;;;;;;;13.10;6.55;;;9.50;99.90;;;;;;5001218;28;20033;-49
2022/01/02 05:34:11;;;;;;;16.17;6.65;;;9.50;99.90;;;;;;4999320;28;20101;-49
2022/01/02 05:36:37;;;;;;;12.50;6.35;;;9.50;99.90;;;;;;5004003;28;20410;-49
2022/01/02 05:39:03;;;;;;;11.90;5.60;;;9.50;99.90;;;;;;5001911;28;20077;-49
2022/01/02 05:41:30;;;;;;;9.90;4.13;;;9.50;99.90;;;;;;4999196;28;20383;-49
2022/01/02 05:43:56;;;;;;;12.50;5.78;;;9.50;99.90;;;;;;4999948;28;20041;-49
2022/01/02 05:46:22;;;;;;;9.63;5.72;;;9.50;99.90;;;;;;4998706;28;20121;-49
2022/01/02 05:48:48;;;;;;;11.82;6.43;;;9.50;99.90;;;;;;5000927;28;20299;-49
2022/01/02 05:51:13;;;;;;;11.38;5.28;;;9.60;99.90;;;;;;5003252;28;20030;-49
2022/01/02 05:53:39;;;;;;;13.02;6.13;;;9.50;99.90;;;;;;5002244;28;20088;-49
2022/01/02 05:56:05;;;;;;;14.45;6.32;;;9.50;99.90;;;;;;5003598;28;20026;-49
2022/01/02 05:58:31;;;;;;;12.07;5.40;;;9.50;99.90;;;;;;5002762;28;20058;-49
2022/01/02 06:00:56;;;;;;;9.00;5.28;;;9.50;99.90;;;;;;5008423;28;20060;-49
2022/01/02 06:03:22;;;;;;;14.73;6.25;;;9.50;99.90;;;;;;4999347;28;20026;-49
2022/01/02 06:05:48;;;;;;;12.77;4.80;;;9.50;99.90;;;;;;4999381;28;20027;-49
2022/01/02 06:08:13;;;;;;;11.52;5.78;;;9.50;99.90;;;;;;5001337;28;20413;-49
2022/01/02 06:10:39;;;;;;;10.88;5.30;;;9.50;99.90;;;;;;5000547;28;20405;-49
2022/01/02 06:13:05;;;;;;;16.33;5.68;;;9.50;99.90;;;;;;4998111;28;20113;-49
2022/01/02 06:15:30;;;;;;;11.35;4.40;;;9.50;99.90;;;;;;5004505;28;20129;-49
2022/01/02 06:17:56;;;;;;;10.07;5.20;;;9.50;99.90;;;;;;5004321;28;20495;-49
2022/01/02 06:20:22;;;;;;;12.20;4.95;;;9.50;99.90;;;;;;4998951;28;20113;-49
2022/01/02 06:22:47;;;;;;;14.82;5.93;;;9.50;99.90;;;;;;5001029;28;20026;-49
2022/01/02 06:25:13;;;;;;;12.77;5.10;;;9.50;99.90;;;;;;5000032;28;20156;-49
2022/01/02 06:27:39;;;;;;;10.93;4.82;;;9.50;99.90;;;;;;5001224;28;20034;-49
2022/01/02 06:30:05;;;;;;;11.48;5.57;;;9.50;99.90;;;;;;4998841;28;20034;-49
2022/01/02 06:32:31;;;;;;;9.77;4.95;;;9.50;99.90;;;;;;5002910;28;20450;-49
2022/01/02 06:34:56;;;;;;;10.05;4.70;;;9.50;99.90;;;;;;5004479;28;20049;-49
2022/01/02 06:37:22;;;;;;;9.88;5.00;;;9.50;99.90;;;;;;5003023;28;20053;-49
2022/01/02 06:39:48;;;;;;;13.32;4.75;;;9.50;99.90;;;;;;5006238;28;20026;-50
2022/01/02 06:42:13;;;;;;;15.32;5.80;;;9.50;99.90;;;;;;5004314;28;20495;-49
2022/01/02 06:44:39;;;;;;;11.27;4.45;;;9.50;99.90;;;;;;5005702;28;20524;-49
2022/01/02 06:47:05;;;;;;;10.30;4.75;;;9.50;99.90;;;;;;5011963;28;20105;-49
2022/01/02 06:49:30;;;;;;;15.15;5.85;;;9.50;99.90;;;;;;5003883;28;20033;-49
2022/01/02 06:51:56;;;;;;;13.63;5.13;;;9.50;99.90;;;;;;5005791;28;20436;-49
2022/01/02 06:54:21;;;;;;;12.40;5.07;;;9.50;99.90;;;;;;5011450;28;20087;-49
2022/01/02 06:56:47;;;;;;;10.93;5.55;;;9.50;99.90;;;;;;5010766;28;20416;-49
2022/01/02 06:59:12;;;;;;;11.43;5.30;;;9.50;99.90;;;;;;5007188;28;20189;-49
2022/01/02 07:01:38;;;;;;;13.30;5.80;;;9.50;99.90;;;;;;5001216;28;20092;-49
2022/01/02 07:04:04;;;;;;;9.73;5.65;;;9.50;99.90;;;;;;5005027;28;20028;-49
2022/01/02 07:06:29;;;;;;;14.85;6.15;;;9.50;99.90;;;;;;5006876;28;20082;-49
2022/01/02 07:08:55;;;;;;;11.98;5.70;;;9.50;99.90;;;;;;5009213;28;20436;-49
2022/01/02 07:11:20;;;;;;;10.18;5.75;;;9.50;99.90;;;;;;5004938;28;20094;-49
2022/01/02 07:13:46;;;;;;;11.63;4.50;;;9.50;99.90;;;;;;5008629;28;20030;-49
2022/01/02 07:16:12;;;;;;;12.65;5.22;;;9.50;99.90;;;;;;5004296;28;20037;-50
2022/01/02 07:18:37;;;;;;;12.85;6.13;;;9.50;99.90;;;;;;5000808;28;20093;-49
2022/01/02 07:21:03;;;;;;;12.23;5.85;;;9.50;99.90;;;;;;5005826;28;20029;-49
2022/01/02 07:23:28;;;;;;;12.40;5.20;;;9.50;99.90;;;;;;4999618;28;20045;-49
2022/01/02 07:25:54;;;;;;;11.07;5.30;;;9.50;99.90;;;;;;5001835;28;20065;-49
2022/01/02 07:28:21;;;;;;;9.55;5.68;;;9.50;99.90;;;;;;5001419;28;20032;-50
2022/01/02 07:30:48;;;;;;;12.25;5.57;;;9.50;99.90;;;;;;4999937;28;20027;-49
2022/01/02 07:33:13;;;;;;;16.20;6.13;;;9.50;99.90;;;;;;5000897;28;20061;-49
2022/01/02 07:35:39;;;;;;;9.57;4.45;;;9.50;99.90;;;;;;5002332;28;20057;-49
2022/01/02 07:38:04;;;;;;;14.88;6.97;;;9.50;99.90;;;;;;5001120;28;20117;-49
2022/01/02 07:40:30;;;;;;;16.60;6.82;;;9.50;99.90;;;;;;5000392;28;20365;-49
2022/01/02 07:42:56;;;;;;;14.20;5.07;;;9.50;99.90;;;;;;5000456;28;20081;-49
2022/01/02 07:45:21;;;;;;;12.07;5.80;;;9.50;99.90;;;;;;5003897;28;20037;-49
2022/01/02 07:47:47;;;;;;;17.15;6.15;;;9.50;99.90;;;;;;5001872;28;20030;-49
2022/01/02 07:50:13;;;;;;;11.63;5.60;;;9.50;99.90;;;;;;5004946;28;20036;-49
2022/01/02 07:52:39;;;;;;;13.73;5.93;;;9.50;99.90;;;;;;5003976;28;20049;-49
2022/01/02 07:55:05;;;;;;;16.38;5.93;;;9.50;99.90;;;;;;5002072;28;20072;-49
2022/01/02 07:57:31;;;;;;;14.57;6.20;;;9.50;99.90;;;;;;5001101;28;20106;-49
2022/01/02 07:59:56;;;;;;;12.43;5.80;;;9.50;99.90;;;;;;5002384;28;20427;-49
2022/01/02 08:02:22;;;;;;;14.57;5.85;;;9.50;99.90;;;;;;4998772;28;20457;-49
2022/01/02 08:04:48;;;;;;;16.25;5.55;;;9.60;99.90;;;;;;5001248;28;20364;-49
2022/01/02 08:07:13;;;;;;;11.55;5.28;;;9.60;99.90;;;;;;4998667;28;20449;-49
2022/01/02 08:09:39;;;;;;;13.52;6.00;;;9.60;99.90;;;;;;5004153;28;20049;-49
2022/01/02 08:12:05;;;;;;;11.82;4.47;;;9.60;99.90;;;;;;5005969;28;20030;-50
2022/01/02 08:14:31;;;;;;;11.88;5.43;;;9.50;99.90;;;;;;5002425;28;20025;-49
2022/01/02 08:16:56;;;;;;;13.07;5.63;;;9.60;99.90;;;;;;5009139;28;20022;-49
2022/01/02 08:19:22;;;;;;;10.10;4.93;;;9.60;99.90;;;;;;5010357;28;20105;-50
2022/01/02 08:21:48;;;;;;;13.77;5.85;;;9.60;99.90;;;;;;5007454;28;20077;-49
2022/01/02 08:24:13;;;;;;;14.45;5.35;;;9.50;99.90;;;;;;5008236;28;20464;-49
2022/01/02 08:26:39;;;;;;;14.15;6.03;;;9.60;99.90;;;;;;5009975;28;20041;-49
2022/01/02 08:29:05;;;;;;;16.67;6.43;;;9.60;99.90;;;;;;5006522;28;20022;-49
2022/01/02 08:31:31;;;;;;;12.18;5.85;;;9.60;99.90;;;;;;5009209;28;20030;-49
2022/01/02 08:33:57;;;;;;;12.00;6.28;;;9.60;99.90;;;;;;5009714;28;20527;-49
2022/01/02 08:36:23;;;;;;;13.43;6.20;;;9.60;99.90;;;;;;5009933;28;20061;-49
2022/01/02 08:38:49;;;;;;;12.27;6.30;;;9.60;99.90;;;;;;5009246;28;20026;-49
2022/01/02 08:41:15;;;;;;;12.27;5.07;;;9.60;99.90;;;;;;5003717;28;20378;-50
2022/01/02 08:43:41;;;;;;;10.68;5.60;;;9.60;99.90;;;;;;4999895;28;20030;-49
2022/01/02 08:46:07;;;;;;;11.38;5.43;;;9.70;99.90;;;;;;5002516;28;20033;-49
2022/01/02 08:48:33;;;;;;;12.07;5.65;;;9.70;99.90;;;;;;5000221;28;20105;-49
2022/01/02 08:50:58;;;;;;;12.27;5.32;;;9.70;99.90;;;;;;5000385;28;20038;-49
2022/01/02 08:53:24;;;;;;;14.20;6.10;;;9.70;99.90;;;;;;5001020;28;20026;-49
2022/01/02 08:55:49;;;;;;;9.02;4.65;;;9.70;99.90;;;;;;4999902;28;20026;-49
2022/01/02 08:58:15;;;;;;;11.52;4.97;;;9.70;99.90;;;;;;5000118;28;20121;-49
2022/01/02 09:00:41;;;;;;;11.88;5.85;;;9.70;99.90;;;;;;5005288;28;20032;-50
2022/01/02 09:03:07;;;;;;;13.05;5.20;;;9.70;99.90;;;;;;5009024;28;20022;-49
2022/01/02 09:05:33;;;;;;;10.70;5.68;;;9.70;99.90;;;;;;5009038;28;20376;-50
2022/01/02 09:07:59;;;;;;;14.07;4.75;;;9.70;99.90;;;;;;5008610;28;20360;-49
2022/01/02 09:10:24;;;;;;;10.82;5.95;;;9.80;99.90;;;;;;5001576;28;20030;-49
2022/01/02 09:12:50;;;;;;;14.48;5.70;;;9.80;99.90;;;;;;5000629;28;20044;-49
2022/01/02 09:15:16;;;;;;;10.85;5.28;;;9.80;99.90;;;;;;5000300;28;20436;-49
2022/01/02 09:17:42;;;;;;;13.30;5.13;;;9.80;99.90;;;;;;5001021;28;20433;-49
2022/01/02 09:20:09;;;;;;;12.40;4.93;;;9.80;99.90;;;;;;4999299;28;20457;-49
2022/01/02 09:22:37;;;;;;;7.60;3.63;;;9.80;99.90;;;;;;4998789;28;20026;-49
2022/01/02 09:25:04;;;;;;;16.23;5.03;;;9.80;99.90;;;;;;5000523;28;20042;-49
2022/01/02 09:27:29;;;;;;;12.73;5.35;;;9.80;99.90;;;;;;5001270;28;20039;-50
2022/01/02 09:29:55;;;;;;;11.30;5.47;;;9.80;99.90;;;;;;4998516;28;20030;-49
2022/01/02 09:32:21;;;;;;;12.88;4.97;;;9.80;99.90;;;;;;5000556;28;20038;-49
2022/01/02 09:34:47;;;;;;;12.63;5.28;;;9.90;99.90;;;;;;4999329;28;20373;-49
2022/01/02 09:37:12;;;;;;;13.23;4.88;;;9.90;99.90;;;;;;5001035;28;20034;-50
2022/01/02 09:39:38;;;;;;;11.60;4.88;;;9.90;99.90;;;;;;5001656;28;20022;-49
2022/01/02 09:42:04;;;;;;;9.25;4.32;;;9.90;99.90;;;;;;4998095;28;20117;-50
2022/01/02 09:44:31;;;;;;;11.93;5.47;;;9.90;99.90;;;;;;4999171;28;20468;-49
2022/01/02 09:46:58;;;;;;;15.60;6.05;;;10.00;99.90;;;;;;4999715;28;20027;-49
2022/01/02 09:49:24;;;;;;;10.45;4.65;;;9.90;99.90;;;;;;5000934;28;20030;-49
2022/01/02 09:51:50;;;;;;;9.77;4.53;;;10.00;99.90;;;;;;4999992;28;20041;-49
2022/01/02 09:54:16;;;;;;;9.27;5.22;;;10.00;99.90;;;;;;4998764;28;20026;-50
2022/01/02 09:56:42;;;;;;;10.82;4.80;;;10.00;99.90;;;;;;5001056;28;20100;-49
2022/01/02 09:59:07;;;;;;;6.45;3.53;;;10.00;99.90;;;;;;4998965;28;20022;-49
2022/01/02 10:01:33;;;;;;;8.57;4.07;;;10.10;99.90;;;;;;5001309;28;20066;-50
2022/01/02 10:03:59;;;;;;;7.72;3.92;;;10.10;99.90;;;;;;5000406;28;20033;-49
2022/01/02 10:06:40;;;;;;;6.25;3.50;;;10.00;99.90;;;;;;5003297;28;20140;-49
2022/01/02 10:09:09;;;;;;;10.55;4.97;;;10.10;99.90;;;;;;5006470;28;20025;-50
2022/01/02 10:11:37;;;;;;;11.98;4.88;;;10.10;99.90;;;;;;5001501;28;20034;-49
2022/01/02 10:14:05;;;;;;;11.30;4.03;;;10.10;99.90;;;;;;5003815;28;20416;-50
2022/01/02 10:16:41;;;;;;;7.90;3.30;;;10.10;99.90;;;;;;5005860;28;20031;-49
2022/01/02 10:19:18;;;;;;;6.47;4.00;;;10.10;99.90;;;;;;5002550;28;20117;-49
2022/01/02 10:22:01;;;;;;;8.05;3.72;;;10.10;99.90;;;;;;5003464;28;20023;-50
2022/01/02 10:24:33;;;;;;;3.33;2.10;;;10.10;99.90;;;;;;5003663;28;20405;-50
2022/01/02 10:27:05;;;;;;;1.30;1.20;;;10.10;99.90;;;;;;5001979;28;20096;-49
2022/01/02 10:29:57;;;;;;;4.50;2.33;;;10.20;99.90;;;;;;5002642;28;20065;-49
2022/01/02 10:32:36;;;;;;;9.32;4.60;;;10.20;99.90;;;;;;5004718;28;20109;-50
2022/01/02 10:35:23;;;;;;;11.30;4.65;;;10.20;99.90;;;;;;5004587;28;20022;-49
2022/01/02 10:37:57;;;;;;;12.80;4.53;;;10.20;99.90;;;;;;5004821;28;20032;-50
2022/01/02 10:40:30;;;;;;;5.97;3.45;;;10.30;99.90;;;;;;5002965;28;20426;-49
2022/01/02 10:42:57;;;;;;;8.40;4.20;;;10.30;99.90;;;;;;5001930;28;20037;-49
2022/01/02 10:45:32;;;;;;;9.88;4.55;;;10.30;99.90;;;;;;5002707;28;20034;-50
2022/01/02 10:47:58;;;;;;;8.25;3.00;;;10.30;99.90;;;;;;5000398;28;20365;-50
2022/01/02 10:50:23;;;;;;;7.05;3.47;;;10.30;99.90;;;;;;5003071;28;20030;-49
2022/01/02 10:52:49;;;;;;;8.88;3.90;;;10.30;99.90;;;;;;5003884;28;20399;-49
2022/01/02 10:55:23;;;;;;;7.32;3.33;;;10.30;99.90;;;;;;5001742;28;20030;-50
2022/01/02 10:57:52;;;;;;;10.80;4.82;;;10.30;99.90;;;;;;5001420;28;20037;-50
2022/01/02 11:00:20;;;;;;;5.30;2.85;;;10.40;99.90;;;;;;5003207;28;20452;-50
2022/01/02 11:02:46;;;;;;;9.48;4.38;;;10.30;99.90;;;;;;4999834;28;20038;-49
2022/01/02 11:05:18;;;;;;;11.98;4.82;;;10.30;99.90;;;;;;5001745;28;20125;-49
2022/01/02 11:07:46;;;;;;;8.70;4.00;;;10.40;99.90;;;;;;5006220;28;20025;-49
2022/01/02 11:10:18;;;;;;;6.82;3.38;;;10.30;99.90;;;;;;5001798;28;20035;-49
2022/01/02 11:12:44;;;;;;;8.77;3.53;;;10.40;99.90;;;;;;5001525;28;20030;-49
2022/01/02 11:15:13;;;;;;;8.95;4.82;;;10.40;99.90;;;;;;5001241;28;20065;-49
2022/01/02 11:17:39;;;;;;;8.57;3.63;;;10.30;99.90;;;;;;5000909;28;20065;-50
2022/01/02 11:20:07;;;;;;;7.80;3.83;;;10.40;99.90;;;;;;5004455;28;20065;-49
2022/01/02 11:22:38;;;;;;;9.68;4.63;;;10.40;99.90;;;;;;5001586;28;20093;-49
2022/01/02 11:25:11;;;;;;;5.10;2.65;;;10.40;99.90;;;;;;5001326;28;20030;-50
2022/01/02 11:27:43;;;;;;;12.20;3.95;;;10.40;99.90;;;;;;5002291;28;20113;-50
2022/01/02 11:30:30;;;;;;;5.57;3.75;;;10.40;99.90;;;;;;5001758;28;20092;-49
2022/01/02 11:33:01;;;;;;;0.40;0.40;;;10.40;99.90;;;;;;5000625;28;20037;-49
2022/01/02 11:35:27;;;;;;;;;;;10.40;99.90;;;;;;5001841;28;20053;-49
2022/01/02 11:37:53;;;;;;;7.50;3.58;;;10.40;99.90;;;;;;5001546;28;20252;-49
2022/01/02 11:40:55;;;;;;;6.25;3.47;;;10.40;99.90;;;;;;5002042;28;20029;-50
2022/01/02 11:43:36;;;;;;;7.75;3.35;;;10.50;99.90;;;;;;5000478;28;20034;-49
2022/01/02 11:46:24;;;;;;;12.05;3.85;;;10.40;99.90;;;;;;5000941;28;20030;-49
2022/01/02 11:49:04;;;;;;;8.15;3.03;;;10.50;99.90;;;;;;5002787;28;20041;-49
2022/01/02 11:51:48;;;;;;;9.32;3.70;;;10.40;99.90;;;;;;5000477;28;20042;-50
2022/01/02 11:54:29;;;;;;;8.85;3.83;;;10.40;99.90;;;;;;5000700;28;20019;-50
2022/01/02 11:56:58;;;;;;;4.50;2.40;;;10.50;99.90;;;;;;4999400;28;20037;-50
2022/01/02 11:59:39;;;;;;;9.77;3.53;;;10.50;99.90;;;;;;5001984;28;20052;-50
2022/01/02 12:02:30;;;;;;;6.38;3.35;;;10.50;99.90;;;;;;4997709;28;20037;-49
2022/01/02 12:07:37;;;;;;;7.07;3.33;;;10.50;99.90;;;;;;5000579;28;20081;-49
2022/01/02 12:12:59;;;;;;;7.43;3.08;;;10.50;99.90;;;;;;5002436;28;20475;-49
2022/01/02 12:15:31;;;;;;;8.02;3.13;;;10.50;99.90;;;;;;4999651;28;20026;-49
2022/01/02 12:18:13;;;;;;;7.47;2.83;;;10.50;99.90;;;;;;5001052;28;20369;-49
2022/01/02 12:21:04;;;;;;;3.00;2.38;;;10.50;99.90;;;;;;5000846;28;20484;-49
2022/01/02 12:23:30;;;;;;;8.52;3.53;;;10.50;99.90;;;;;;5003380;28;20555;-49
2022/01/02 12:25:58;;;;;;;7.93;3.10;;;10.50;99.90;;;;;;4999764;28;20031;-50
2022/01/02 12:28:25;;;;;;;7.53;3.72;;;10.50;99.90;;;;;;5001676;28;20025;-50
2022/01/02 12:30:52;;;;;;;4.63;2.70;;;10.50;99.90;;;;;;5002393;28;20124;-49
2022/01/02 12:33:26;;;;;;;9.10;3.47;;;10.50;99.90;;;;;;4999665;28;20030;-50
2022/01/02 12:35:52;;;;;;;6.25;3.03;;;10.50;99.90;;;;;;5000347;28;20027;-50
2022/01/02 12:38:17;;;;;;;5.65;2.72;;;10.50;99.90;;;;;;5002779;28;20029;-49
2022/01/02 12:40:44;;;;;;;5.70;3.33;;;10.50;99.90;;;;;;5001187;28;20554;-49
2022/01/02 12:43:11;;;;;;;5.82;2.47;;;10.50;99.90;;;;;;4999259;28;20057;-50
2022/01/02 12:45:37;;;;;;;3.47;2.22;;;10.50;99.90;;;;;;5004812;28;20068;-49
2022/01/02 12:48:03;;;;;;;5.28;2.90;;;10.50;99.90;;;;;;5001679;28;20111;-50
2022/01/02 12:50:30;;;;;;;5.07;2.42;;;10.60;99.90;;;;;;4999786;28;20057;-49
2022/01/02 12:52:57;;;;;;;5.13;2.78;;;10.60;99.90;;;;;;5000788;28;20022;-50
2022/01/02 12:55:24;;;;;;;7.15;2.58;;;10.60;99.90;;;;;;5001850;28;20088;-49
2022/01/02 12:58:00;;;;;;;10.52;3.50;;;10.50;99.90;;;;;;4999366;28;20109;-50
2022/01/02 13:00:26;;;;;;;3.17;2.28;;;10.50;99.90;;;;;;5000161;28;20033;-49
2022/01/02 13:02:53;;;;;;;6.90;2.80;;;10.60;99.90;;;;;;4998517;28;20420;-49
2022/01/02 13:05:18;;;;;;;9.93;2.45;;;10.60;99.90;;;;;;5000007;28;20412;-50
2022/01/02 13:07:46;;;;;;;9.20;2.40;;;10.60;99.90;;;;;;5003403;28;20026;-49